Tiempo atmosférico en la estación meteorológica de Tazacorte, Santa Cruz de Tenerife (30 m.)



Fecha
DESCASC
Temp. máxima en grados centígrados (hora)
DESCASC
Temp. mínima en grados centígrados (hora)
DESCASC
Temp. media en grados centígrados
DESCASC
Racha de viento máxima en m/sg (hora)
DESCASC
Velocidad máxima media en intervalos de 10 minutos(hora)
DESCASC
Precipitaciones diarias en mm
DESCASC
Precipitaciones de 00:00 a 06:00 en mm
DESCASC
Precipitaciones de 06:00 a 12:00 en mm
DESCASC
Precipitaciones de 12:00 a 18:00 en mm
DESCASC
Precipitaciones de 18:00 a 24:00 en mm
DESCASC
23-06-2019 27.2 (17:10) 19.3 (05:20) 23.3 5 (18:00) 3.06 (18:00) 0 0 0 0 0
22-06-2019 25.8 (12:10) 19.8 (07:10) 22.8 6.11 (20:30) 3.33 (20:00) 0 0 0 0 0
21-06-2019 25.7 (12:10) 19.5 (07:40) 22.6 4.44 (13:40) 2.22 (05:10) 0 0 0 0 0
20-06-2019 28.6 (14:50) 18.9 (00:00) 23.8 5.83 (20:10) 2.78 (16:50) 0 0 0 0 0
19-06-2019 28.4 (16:50) 19 (00:00) 23.7 7.22 (20:40) 4.17 (20:40) 0 0 0 0 0
18-06-2019 26.6 (13:50) 20.9 (00:00) 23.8 5.28 (05:40) 2.78 (13:30) 0.1 0 0.1 0 0
17-06-2019 27.6 (16:10) 18.4 (00:00) 23 4.72 (17:40) 2.5 (06:40) 0 0 0 0 0
16-06-2019 26.8 (16:20) 17.8 (00:00) 22.3 4.17 (14:20) 2.5 (05:30) 0 0 0 0 0
15-06-2019 24.9 (17:00) 17.1 (00:00) 21 5 (19:20) 3.06 (05:10) 0 0 0 0 0
14-06-2019 22.9 (14:10) 18.6 (00:00) 20.8 3.61 (23:40) 2.5 (23:20) 0 0 0 0 0
13-06-2019 25.9 (15:30) 19.9 (00:00) 22.9 5 (17:20) 2.5 (17:10) 0 0 0 0 0
12-06-2019 25.4 (13:20) 19.6 (00:00) 22.5 6.11 (03:50) 3.33 (03:30) 0 0 0 0 0
11-06-2019 27.8 (14:20) 18.7 (00:00) 23.3 6.39 (15:40) 3.61 (15:20) 0 0 0 0 0
10-06-2019 26.9 (16:30) 17.8 (00:00) 22.3 8.33 (11:00) 5.28 (11:00) 0 0 0 0 0
09-06-2019 26.9 (15:40) 18.1 (00:00) 22.5 8.06 (09:50) 5 (09:50) 0 0 0 0 0
08-06-2019 27.2 (16:30) 19.1 (00:00) 23.2 5.28 (16:50) 3.33 (23:59) 0 0 0 0 0
07-06-2019 26.3 (14:20) 17.5 (00:00) 21.9 3.89 (13:50) 2.22 (07:00) 0 0 0 0 0
06-06-2019 24.7 (16:40) 19.1 (00:00) 21.9 5.28 (08:10) 2.5 (17:00) 0 0 0 0 0
05-06-2019 26.2 (12:50) 20 (00:00) 23.1 6.39 (14:30) 3.89 (14:40) 0 0 0 0 0
04-06-2019 28.5 (15:40) 19.8 (00:00) 24.1 6.11 (17:50) 3.33 (18:00) 0 0 0 0 0
03-06-2019 30 (16:00) 18.9 (00:00) 24.4 3.61 (03:20) 2.22 (14:40) 0 0 0 0 0
02-06-2019 26.9 (15:30) 20 (00:00) 23.4 4.72 (12:30) 2.5 (12:30) 0 0 0 0 0
01-06-2019 26 (17:40) 19.7 (00:00) 22.9 4.72 (13:30) 3.06 (16:30) 0 0 0 0 0
31-05-2019 26.7 (17:00) 18.6 (00:00) 22.7 5.56 (16:30) 3.06 (16:10) 0 0 0 0 0
30-05-2019 26.3 (14:50) 18.9 (00:00) 22.6 5 (19:10) 2.78 (18:30) 0 0 0 0 0
29-05-2019 25.8 (16:30) 19.2 (00:00) 22.5 6.94 (11:30) 3.89 (11:50) 0 0 0 0 0
28-05-2019 26 (15:20) 18.1 (00:00) 22.1 7.78 (13:20) 4.72 (13:20) 0 0 0 0 0
27-05-2019 26.6 (16:00) 18.1 (00:00) 22.4 6.11 (14:10) 3.33 (14:10) 0 0 0 0 0
26-05-2019 26.6 (16:10) 18.2 (00:00) 22.4 11.39 (04:10) 7.22 (04:30) 0 0 0 0 0

Gráficas

Temp. máximas Temp. mínimas Temp. medias Precipitaciones Rachas de viento máximas Velocidades máximas media en intervalos de 10 minutos

Datos horarios

Fecha y hora oficial Temperatura (ºC) Velocidad del viento (km/h) Dirección del viento Racha (km/h) Dirección de racha Precipitación (mm) Presión (hPa) Tendencia (hPa) Humedad (%)
2019-06-24 22:00:00 22.8 9 Noroeste 19 Noroeste 0 1009.6 0.7 90
2019-06-24 21:00:00 22.9 9 Noroeste 14 Norte 0 1009.1 0.1 89
2019-06-24 20:00:00 24 6 Noroeste 12 Noroeste 0 1008.8 -0.1 86
2019-06-24 19:00:00 23.3 6 Noroeste 14 Noroeste 0 1008.9 -0.2 89
2019-06-24 18:00:00 25.8 8 Oeste 15 Oeste 0 1009 -0.1 77
2019-06-24 17:00:00 26.4 4 Oeste 12 Noroeste 0 1008.9 -0.4 69
2019-06-24 16:00:00 27.3 4 Oeste 14 Sudoeste 0 1009.1 -0.4 65
2019-06-24 15:00:00 27.6 5 Oeste 15 Oeste 0 1009.1 -0.1 64
2019-06-24 14:00:00 26.6 5 Sudoeste 13 Oeste 0 1009.3 0.4 68
2019-06-24 13:00:00 27.9 5 Oeste 12 Sudoeste 0 1009.5 0.8 63
2019-06-24 12:00:00 27 4 Sudoeste 10 Sudoeste 0 1009.2 0.6 65
2019-06-24 11:00:00 26 4 Oeste 10 Oeste 0 1008.9 0.4 66
2019-06-24 10:00:00 24.5 5 Noroeste 10 Norte 0 1008.7 0.4 70
2019-06-24 09:00:00 22 5 Nordeste 13 Este 0 1008.6 0.4 79
2019-06-24 08:00:00 20.7 9 Nordeste 12 Este 0 1008.5 0.4 85
2019-06-24 07:00:00 20.2 5 Nordeste 10 Norte 0 1008.3 -0.2 86
2019-06-24 06:00:00 20.3 6 Nordeste 14 Norte 0 1008.2 -0.9 82
2019-06-24 05:00:00 20.3 9 Nordeste 13 Norte 0 1008.1 -1.5 86
2019-06-24 04:00:00 20.3 3 Nordeste 8 Este 0 1008.5 -1.4 90
2019-06-24 03:00:00 20.6 3 Este 6 Este 0 1009.1 -0.6 89
2019-06-24 02:00:00 20.9 3 Este 8 Norte 0 1009.6 0 90
2019-06-24 01:00:00 21.3 3 Norte 9 Norte 0 1009.9 0.6 90
2019-06-24 00:00:00 21.4 5 Norte 10 Norte 0 1009.7 1 92
2019-06-23 23:00:00 21.8 6 Norte 14 Noroeste 0 1009.6 1.1 90
2019-06-23 22:00:00 22.2 6 Noroeste 17 Noroeste 0 1009.3 0.8 90
2019-06-23 21:00:00 22.9 10 Noroeste 17 Noroeste 0 1008.7 -0.1 82
2019-06-23 20:00:00 24 6 Noroeste 15 Noroeste 0 1008.5 -0.6 75
2019-06-23 19:00:00 24 8 Noroeste 15 Norte 0 1008.5 -0.9 79
2019-06-23 18:00:00 24.3 11 Noroeste 18 Noroeste 0 1008.8 -1 81
2019-06-23 17:00:00 26.1 9 Noroeste 16 Noroeste 0 1009.1 -1 73
2019-06-23 16:00:00 25.8 7 Noroeste 14 Noroeste 0 1009.4 -0.9 73
2019-06-23 15:00:00 25.8 7 Noroeste 15 Oeste 0 1009.8 -0.6 74
2019-06-23 14:00:00 24.9 5 Noroeste 13 Noroeste 0 1010.1 -0.2 77
2019-06-23 13:00:00 24.2 6 Noroeste 13 Noroeste 0 1010.3 0.2 79
2019-06-23 12:00:00 23.1 6 Noroeste 10 Noroeste 0 1010.4 0.6 79
2019-06-23 11:00:00 22.6 2 Noroeste 8 Oeste 0 1010.3 0.8 77
2019-06-23 10:00:00 22.2 0 Calma 4 Noroeste 0 1010.1 0.9 78
2019-06-23 09:00:00 20.3 0 Calma 9 Este 0 1009.8 0.6 81
2019-06-23 08:00:00 19.5 5 Este 9 Este 0 1009.5 0.1 78
2019-06-23 07:00:00 19.4 6 Este 10 Este 0 1009.2 -0.3 77
2019-06-23 06:00:00 19.5 6 Este 11 Este 0 1009.2 -0.9 77
2019-06-23 05:00:00 19.5 4 Nordeste 9 Este 0 1009.4 -1.3 77
2019-06-23 04:00:00 19.8 6 Este 9 Este 0 1009.5 -1.7 78
2019-06-23 03:00:00 20.3 7 Este 13 Sudeste 0 1010.1 -1.5 78
2019-06-23 02:00:00 20.4 7 Este 15 Sudeste 0 1010.7 -0.5 85
2019-06-23 01:00:00 20.6 8 Este 12 Sudeste 0 1011.2 0.3 83
2019-06-23 00:00:00 20.8 4 Este 9 Este 0 1011.6 0.9 83
2019-06-22 23:00:00 21.3 8 Noroeste 18 Noroeste 0 1011.2 0.5 86
2019-06-22 22:00:00 21.5 9 Noroeste 18 Noroeste 0 1010.9 0.2 84
2019-06-22 21:00:00 22.1 9 Noroeste 22 Noroeste 0 1010.7 0 80
2019-06-22 20:00:00 22.8 12 Noroeste 20 Noroeste 0 1010.7 -0.5 77
2019-06-22 19:00:00 23 9 Noroeste 19 Noroeste 0 1010.7 -1 76
2019-06-22 18:00:00 22.9 11 Noroeste 19 Noroeste 0 1010.7 -1.4 76
2019-06-22 17:00:00 23.9 8 Noroeste 14 Oeste 0 1011.2 -1.1 73
2019-06-22 16:00:00 23.7 6 Noroeste 13 Oeste 0 1011.7 -1.1 72
2019-06-22 15:00:00 24.3 3 Sudoeste 10 Sudoeste 0 1012.1 -0.7 69
2019-06-22 14:00:00 24.2 4 Sur 9 Sur 0 1012.3 -0.4 69
2019-06-22 13:00:00 23.7 3 Oeste 10 Sudoeste 0 1012.8 0.2 69
2019-06-22 12:00:00 25.6 3 Sudoeste 11 Sudoeste 0 1012.8 0.2 65
2019-06-22 11:00:00 23.6 5 Sudoeste 10 Sudoeste 0 1012.7 0.3 71
2019-06-22 10:00:00 21.8 0 Calma 7 Sur 0 1012.6 0.5 77
2019-06-22 09:00:00 21.5 3 Sudeste 5 Sudeste 0 1012.6 1 78
2019-06-22 08:00:00 20.5 3 Este 8 Este 0 1012.4 1.2 78
2019-06-22 07:00:00 19.9 5 Este 8 Este 0 1012.1 0.6 78
2019-06-22 06:00:00 20.3 5 Este 8 Este 0 1011.6 -0.3 77
2019-06-22 05:00:00 20.6 5 Este 9 Este 0 1011.2 -1.2 76
2019-06-22 04:00:00 20.5 5 Este 10 Este 0 1011.5 -1.5 76
2019-06-22 03:00:00 20.4 6 Este 11 Este 0 1011.9 -1.2 79
2019-06-22 02:00:00 20.1 8 Este 12 Este 0 1012.4 -0.4 79
2019-06-22 01:00:00 20.8 6 Este 8 Este 0 1013 0.5 78
2019-06-22 00:00:00 20.9 4 Este 8 Este 0 1013.1 1 79
2019-06-21 23:00:00 21.2 2 Sudeste 5 Sur 0 1012.8 0.5 82
2019-06-21 22:00:00 21.8 5 Sur 9 Sudeste 0 1012.5 0.3 79
2019-06-21 21:00:00 22.4 4 Sur 7 Sur 0 1012.1 -0.2 77
2019-06-21 20:00:00 22.8 2 Sudoeste 9 Sudoeste 0 1012.3 -0.1 76
2019-06-21 19:00:00 22.9 3 Oeste 7 Noroeste 0 1012.2 -0.4 76
2019-06-21 18:00:00 23 2 Oeste 11 Sur 0 1012.3 -0.7 74
2019-06-21 17:00:00 23.4 7 Sur 16 Sur 0 1012.4 -1 74
2019-06-21 16:00:00 23.8 8 Sur 14 Sudeste 0 1012.6 -0.8 71
2019-06-21 15:00:00 24.1 5 Sur 11 Oeste 0 1013 -0.3 73
2019-06-21 14:00:00 23.9 6 Oeste 16 Oeste 0 1013.4 0.3 72
2019-06-21 13:00:00 23.9 5 Oeste 12 Oeste 0 1013.4 0.2 70
2019-06-21 12:00:00 25.3 5 Sur 13 Sur 0 1013.3 0.3 70
2019-06-21 11:00:00 23.6 5 Sur 13 Sur 0 1013.1 0.5 74
2019-06-21 10:00:00 23 5 Sur 10 Sudeste 0 1013.2 0.7 81
2019-06-21 09:00:00 20.6 2 Sudeste 9 Este 0 1013 0.7 88
2019-06-21 08:00:00 19.7 7 Este 12 Nordeste 0 1012.6 0.2 80
2019-06-21 07:00:00 19.8 6 Este 12 Este 0 1012.5 -0.1 80
2019-06-21 06:00:00 19.7 7 Este 13 Este 0 1012.3 -0.6 79
2019-06-21 05:00:00 19.8 8 Este 12 Este 0 1012.4 -1 81
2019-06-21 04:00:00 20 5 Este 11 Este 0 1012.6 -0.9 82
2019-06-21 03:00:00 20.3 6 Este 10 Este 0 1012.9 -1.1 80
2019-06-21 02:00:00 20.6 5 Este 9 Este 0 1013.4 -0.3 79
2019-06-21 01:00:00 21.4 6 Sudeste 10 Sudeste 0 1013.5 0.7 81
2019-06-21 00:00:00 21.6 3 Sudeste 6 Sur 0 1014 1.7 79
2019-06-20 23:00:00 21.6 2 Norte 6 Noroeste 0 1013.7 1.6 78
2019-06-20 22:00:00 22.2 0 Calma 17 Sudeste 0 1012.8 0.6 77
2019-06-20 21:00:00 23.1 8 Sur 21 Sur 0 1012.3 0 74
2019-06-20 20:00:00 23.8 8 Sur 17 Sur 0 1012.1 -0.4 69
2019-06-20 19:00:00 24.7 8 Sur 18 Sur 0 1012.2 -0.4 68
2019-06-20 18:00:00 26 8 Sur 17 Sur 0 1012.3 -0.7 64
2019-06-20 17:00:00 26.3 8 Sur 17 Sur 0 1012.5 -0.7 61
2019-06-20 16:00:00 26.4 8 Sur 17 Sur 0 1012.6 -0.8 61
2019-06-20 15:00:00 27.7 8 Sudoeste 17 Sur 0 1013 -0.4 56
2019-06-20 14:00:00 27 9 Sur 18 Sur 0 1013.2 -0.2 59
2019-06-20 13:00:00 25.8 4 Sur 10 Sur 0 1013.4 0.1 62
2019-06-20 12:00:00 26.3 5 Sudoeste 11 Sudoeste 0 1013.4 0.4 60
2019-06-20 11:00:00 25.1 5 Sudoeste 12 Sur 0 1013.4 0.9 63
2019-06-20 10:00:00 23.4 5 Sudeste 9 Sudeste 0 1013.3 1.1 71
2019-06-20 09:00:00 20.6 5 Sudeste 12 Este 0 1013 0.8 75
2019-06-20 08:00:00 19.3 7 Este 12 Este 0 1012.5 0.3 74
2019-06-20 07:00:00 19 8 Este 13 Este 0 1012.2 -0.4 75
2019-06-20 06:00:00 19.2 7 Este 13 Este 0 1012.2 -0.8 73
2019-06-20 05:00:00 19.7 5 Este 11 Este 0 1012.2 -1.3 76
2019-06-20 04:00:00 19.9 8 Este 12 Sudeste 0 1012.6 -1.2 82
2019-06-20 03:00:00 20.7 3 Sudeste 7 Este 0 1013 -0.9 81
2019-06-20 02:00:00 21 4 Sudeste 10 Sudeste 0 1013.5 0.1 84
2019-06-20 01:00:00 21.4 6 Sudeste 9 Sudeste 0 1013.8 0.9 82
2019-06-20 00:00:00 21.7 0 Calma 10 Sur 0 1013.9 1.5 82
2019-06-19 23:00:00 21.6 5 Sudeste 15 Sudeste 0 1013.4 1.4 82
2019-06-19 22:00:00 21.7 9 Sudeste 20 Sudeste 0 1012.9 1.1 81
2019-06-19 21:00:00 22.4 12 Sudeste 26 Sudeste 0 1012.4 0.2 77
2019-06-19 20:00:00 23.6 12 Sur 23 Sur 0 1012 -0.3 71
2019-06-19 19:00:00 24.8 12 Sur 22 Sur 0 1011.8 -0.8 66
2019-06-19 18:00:00 26.6 11 Sur 21 Sur 0 1012.2 -0.6 62
2019-06-19 17:00:00 27.6 10 Sudoeste 17 Sudoeste 0 1012.3 -1.1 58
2019-06-19 16:00:00 27.5 7 Oeste 17 Oeste 0 1012.6 -0.8 57
2019-06-19 15:00:00 27.5 8 Sudoeste 18 Noroeste 0 1012.8 -0.4 61
2019-06-19 14:00:00 25.7 9 Noroeste 18 Noroeste 0 1013.4 0.4 64
2019-06-19 13:00:00 25 9 Noroeste 21 Noroeste 0 1013.4 0.9 68
2019-06-19 12:00:00 24.5 11 Noroeste 21 Noroeste 0 1013.2 1.1 68
2019-06-19 11:00:00 24 7 Noroeste 15 Noroeste 0 1013 1.4 71
2019-06-19 10:00:00 23.5 4 Oeste 7 Sudoeste 0 1012.5 1 68
2019-06-19 09:00:00 20.2 0 Calma 8 Nordeste 0 1012.1 0.8 75
2019-06-19 08:00:00 19.2 4 Este 8 Este 0 1011.6 0.4 75
2019-06-19 07:00:00 19.2 5 Este 11 Este 0 1011.5 0.2 76
2019-06-19 06:00:00 19.3 5 Este 9 Nordeste 0 1011.3 -0.1 79
2019-06-19 05:00:00 19.9 6 Nordeste 10 Nordeste 0 1011.2 -0.6 75
2019-06-19 04:00:00 19.5 5 Este 8 Este 0 1011.3 -0.8 75
2019-06-19 03:00:00 19.7 5 Este 8 Este 0 1011.4 -1 79
2019-06-19 02:00:00 20 5 Este 7 Este 0 1011.8 -0.4 82
2019-06-19 01:00:00 20.5 3 Este 9 Norte 0 1012.1 0.2 85
2019-06-19 00:00:00 21 4 Norte 9 Norte 0 1012.4 0.8 85
2019-06-18 23:00:00 21.4 3 Norte 9 Noroeste 0 1012.2 0.7 83
2019-06-18 22:00:00 21.7 4 Noroeste 8 Norte 0 1011.9 0.3 82
2019-06-18 21:00:00 22.2 5 Norte 13 Noroeste 0 1011.6 0.1 80
2019-06-18 20:00:00 23 6 Noroeste 13 Noroeste 0 1011.5 0.1 74
2019-06-18 19:00:00 23.6 7 Noroeste 15 Noroeste 0 1011.6 0.5 73
2019-06-18 18:00:00 24.8 8 Noroeste 16 Noroeste 0 1011.5 0.4 70
2019-06-18 17:00:00 25.2 7 Noroeste 18 Noroeste 0 1011.4 -0.2 69
2019-06-18 16:00:00 25.8 8 Noroeste 18 Noroeste 0 1011.1 -0.9 68
2019-06-18 15:00:00 25.5 8 Noroeste 17 Noroeste 0 1011.1 -0.8 70
2019-06-18 14:00:00 25.1 10 Noroeste 18 Noroeste 0 1011.6 -0.1 70
2019-06-18 13:00:00 25.1 8 Noroeste 17 Noroeste -- 1012 0.6 73
2019-06-18 12:00:00 24.9 8 Noroeste 17 Noroeste 0.1 1011.9 1.1 75
2019-06-18 11:00:00 23.5 9 Noroeste 15 Noroeste 0 1011.7 1.6 80
2019-06-18 10:00:00 21.9 9 Noroeste 15 Noroeste 0 1011.4 1.7 89
2019-06-18 09:00:00 21.7 6 Noroeste 11 Norte 0 1010.8 1.3 93
2019-06-18 08:00:00 21.5 2 Noroeste 10 Norte 0 1010.1 0.7 93
2019-06-18 07:00:00 21.2 7 Norte 13 Noroeste 0 1009.7 0.1 93
2019-06-18 06:00:00 21.6 8 Noroeste 19 Noroeste 0 1009.5 -0.6 89
2019-06-18 05:00:00 22.1 7 Nordeste 12 Nordeste 0 1009.4 -1.4 76
2019-06-18 04:00:00 21.2 5 Norte 11 Norte 0 1009.6 -1.7 87
2019-06-18 03:00:00 21.3 5 Nordeste 12 Nordeste 0 1010.1 -1.6 85
2019-06-18 02:00:00 21.3 5 Norte 12 Norte 0 1010.8 -0.7 89
2019-06-18 01:00:00 21.4 5 Norte 12 Norte 0 1011.3 -0.3 86
2019-06-18 00:00:00 21.8 7 Norte 13 Nordeste 0 1011.7 0.4 82
2019-06-17 23:00:00 21.8 7 Norte 13 Norte 0 1011.5 0.5 82
2019-06-17 22:00:00 22 4 Noroeste 11 Noroeste 0 1011.6 0.6 82
2019-06-17 21:00:00 22.9 5 Noroeste 10 Noroeste 0 1011.3 0.1 76
2019-06-17 20:00:00 23.4 7 Noroeste 14 Noroeste 0 1011 -0.3 74
2019-06-17 19:00:00 24.3 6 Noroeste 15 Noroeste 0 1011 -0.5 71
2019-06-17 18:00:00 25.7 6 Noroeste 17 Oeste 0 1011.2 -0.8 69
2019-06-17 17:00:00 25.4 6 Noroeste 14 Noroeste 0 1011.3 -0.9 70
2019-06-17 16:00:00 27.4 5 Oeste 13 Noroeste 0 1011.5 -0.9 65
2019-06-17 15:00:00 26 6 Noroeste 14 Noroeste 0 1012 -0.3 67
2019-06-17 14:00:00 25.6 6 Noroeste 16 Oeste 0 1012.2 0 69
2019-06-17 13:00:00 26.3 5 Oeste 13 Oeste 0 1012.4 0.3 66
2019-06-17 12:00:00 25.4 5 Oeste 12 Oeste 0 1012.3 0.3 66
2019-06-17 11:00:00 24 4 Noroeste 12 Oeste 0 1012.2 0.6 69
2019-06-17 10:00:00 23.6 3 Noroeste 6 Oeste 0 1012.1 0.5 62
2019-06-17 09:00:00 20.2 2 Nordeste 12 Este 0 1012 0.3 72
2019-06-17 08:00:00 19.8 6 Nordeste 10 Este 0 1011.6 -0.4 68
2019-06-17 07:00:00 18.5 8 Este 12 Este 0 1011.6 -0.9 74
2019-06-17 06:00:00 18.7 7 Este 9 Este 0 1011.7 -1 82
2019-06-17 05:00:00 18.9 6 Este 11 Este 0 1012 -1.2 77
2019-06-17 04:00:00 18.9 7 Este 10 Este 0 1012.5 -1.6 72
2019-06-17 03:00:00 19 5 Este 7 Este 0 1012.7 -1.7 73
2019-06-17 02:00:00 19.2 6 Este 9 Este 0 1013.2 -0.8 71
2019-06-17 01:00:00 19.5 5 Este 8 Nordeste 0 1014.1 0.8 72
2019-06-17 00:00:00 19.8 4 Este 7 Este 0 1014.4 1.5 71
2019-06-16 23:00:00 20 0 Calma 0 Calma 0 1014 1.3 71
2019-06-16 22:00:00 20.3 0 Calma 5 Oeste 0 1013.3 0.8 68
2019-06-16 21:00:00 21.6 2 Oeste 7 Sudoeste 0 1012.9 -0.3 63
2019-06-16 20:00:00 22.8 3 Oeste 10 Sudoeste 0 1012.7 -0.1 63
2019-06-16 19:00:00 24.3 5 Sudoeste 12 Sur 0 1012.5 -0.7 58
2019-06-16 18:00:00 25.5 4 Sur 12 Sudoeste 0 1013.2 -0.2 55
2019-06-16 17:00:00 26.4 6 Sudoeste 14 Sudoeste 0 1012.8 -1.2 54
2019-06-16 16:00:00 26.6 6 Sudoeste 14 Sudoeste 0 1013.2 -0.8 55
2019-06-16 15:00:00 26.2 7 Sudoeste 15 Sudoeste 0 1013.4 -0.7 57
2019-06-16 14:00:00 26.2 7 Sur 15 Sudoeste 0 1014 0.2 56
2019-06-16 13:00:00 25.8 8 Sudoeste 14 Sudoeste 0 1014 0.6 58
2019-06-16 12:00:00 25 5 Sudoeste 13 Sur 0 1014.1 0.9 62
2019-06-16 11:00:00 24 5 Sudoeste 10 Sudoeste 0 1013.8 1 64
2019-06-16 10:00:00 22.1 4 Sudoeste 7 Sudoeste 0 1013.4 0.8 69
2019-06-16 09:00:00 19 0 Calma 7 Nordeste 0 1013.2 0.9 78
2019-06-16 08:00:00 18.7 4 Nordeste 8 Nordeste 0 1012.8 0.4 76
2019-06-16 07:00:00 18.4 6 Este 10 Este 0 1012.6 0.1 76
2019-06-16 06:00:00 17.9 8 Este 13 Este 0 1012.3 -0.3 75
2019-06-16 05:00:00 18.3 7 Este 10 Este 0 1012.4 -0.9 75
2019-06-16 04:00:00 17.9 7 Este 12 Este 0 1012.5 -1.6 73
2019-06-16 03:00:00 18.1 7 Este 12 Este 0 1012.6 -1.6 71
2019-06-16 02:00:00 18.5 8 Este 12 Este 0 1013.3 -0.5 74
2019-06-16 01:00:00 19.3 4 Nordeste 8 Nordeste 0 1014.1 1 76
2019-06-16 00:00:00 19.8 5 Norte 8 Nordeste 0 1014.2 1.5 75
2019-06-15 23:00:00 19.9 3 Norte 10 Noroeste 0 1013.8 1.5 75
2019-06-15 22:00:00 20.3 5 Noroeste 13 Noroeste 0 1013.1 1.1 73
2019-06-15 21:00:00 21.1 7 Noroeste 15 Noroeste 0 1012.7 0.5 71
2019-06-15 20:00:00 21.9 7 Noroeste 18 Noroeste 0 1012.3 0.2 68
2019-06-15 19:00:00 22.6 9 Noroeste 15 Noroeste 0 1012 -0.7 63
2019-06-15 18:00:00 23.7 9 Noroeste 16 Noroeste 0 1012.2 -1.1 60
2019-06-15 17:00:00 24.9 8 Noroeste 14 Norte 0 1012.1 -1.1 54
2019-06-15 16:00:00 23.6 8 Noroeste 17 Noroeste 0 1012.7 -1.1 62
2019-06-15 15:00:00 22.3 5 Noroeste 11 Norte 0 1013.3 -0.6 64
2019-06-15 14:00:00 22.9 4 Oeste 10 Oeste 0 1013.2 -0.2 66
2019-06-15 13:00:00 22.8 4 Sudoeste 10 Sudoeste 0 1013.8 0.8 65
2019-06-15 12:00:00 22.4 4 Sur 11 Sur 0 1013.9 1.2 65
2019-06-15 11:00:00 24 5 Sur 12 Sudoeste 0 1013.4 1 60
2019-06-15 10:00:00 22.5 4 Sudoeste 9 Sudeste 0 1013 0.9 65
2019-06-15 09:00:00 19.1 3 Sudeste 13 Este 0 1012.7 0.8 72
2019-06-15 08:00:00 17.7 8 Este 14 Este 0 1012.4 0.6 73
2019-06-15 07:00:00 17.3 8 Este 14 Este 0 1012.1 0.1 75
2019-06-15 06:00:00 17.6 9 Este 15 Este 0 1011.9 -0.7 76
2019-06-15 05:00:00 17.5 9 Este 14 Este 0 1011.8 -1.3 77
2019-06-15 04:00:00 17.6 9 Este 14 Este 0 1012 -1.5 77
2019-06-15 03:00:00 17.9 9 Este 13 Este 0 1012.6 -1.2 72
2019-06-15 02:00:00 18.1 9 Este 14 Nordeste 0 1013.1 -0.4 72
2019-06-15 01:00:00 18.1 9 Este 16 Este 0 1013.5 0.3 71
2019-06-15 00:00:00 18.6 8 Este 13 Este 0 1013.8 1.1 71
2019-06-14 23:00:00 18.9 8 Este 12 Este 0 1013.5 1 71
2019-06-14 22:00:00 20.1 0 Calma 4 Noroeste 0 1013.2 0.9 71
2019-06-14 21:00:00 20.7 3 Noroeste 8 Noroeste 0 1012.7 0.4 67
2019-06-14 20:00:00 21.4 4 Noroeste 9 Oeste 0 1012.5 0 64
2019-06-14 19:00:00 21.6 4 Noroeste 10 Noroeste 0 1012.3 -0.2 65
2019-06-14 18:00:00 21.8 6 Noroeste 12 Norte 0 1012.3 -0.4 65
2019-06-14 17:00:00 21.6 5 Noroeste 11 Noroeste 0 1012.5 -0.5 67
2019-06-14 16:00:00 21.7 4 Noroeste 10 Oeste 0 1012.5 -0.6 65
2019-06-14 15:00:00 21.9 5 Noroeste 13 Oeste 0 1012.7 -0.4 65
2019-06-14 14:00:00 22.7 4 Oeste 10 Sudoeste 0 1013 0 63
2019-06-14 13:00:00 22.3 4 Noroeste 9 Oeste 0 1013.1 0.5 63
2019-06-14 12:00:00 21.7 4 Noroeste 9 Oeste 0 1013.1 1.1 65
2019-06-14 11:00:00 22.1 4 Oeste 9 Oeste 0 1013 1.6 65
2019-06-14 10:00:00 20.9 0 Calma 5 Sur 0 1012.6 1.7 72
2019-06-14 09:00:00 19.9 0 Calma 6 Noroeste 0 1012 1.3 73
2019-06-14 08:00:00 19.4 4 Noroeste 9 Oeste 0 1011.4 0.9 75
2019-06-14 07:00:00 19.1 4 Sudeste 9 Sudeste 0 1010.9 0.6 77
2019-06-14 06:00:00 18.9 4 Este 7 Este 0 1010.7 -0.1 81
2019-06-14 05:00:00 19.2 5 Este 7 Este 0 1010.5 -0.8 77
2019-06-14 04:00:00 19.4 4 Este 8 Este 0 1010.3 -1.4 77
2019-06-14 03:00:00 19.3 5 Este 9 Este 0 1010.8 -0.9 74
2019-06-14 02:00:00 19.4 4 Este 7 Este 0 1011.3 -0.3 77
2019-06-14 01:00:00 19.9 2 Norte 4 Norte 0 1011.7 0.4 75
2019-06-14 00:00:00 20 0 Calma 4 Norte 0 1011.7 0.8 75
2019-06-13 23:00:00 20.3 0 Calma 3 Sudoeste 0 1011.6 1.3 73
2019-06-13 22:00:00 20.7 0 Calma 6 Sudoeste 0 1011.3 1.1 70
2019-06-13 21:00:00 21.1 3 Sur 11 Sudoeste 0 1010.9 0.4 69
2019-06-13 20:00:00 21.6 5 Sur 12 Sudoeste 0 1010.3 -0.1 67
2019-06-13 19:00:00 22 6 Sudoeste 17 Sudoeste 0 1010.2 -0.3 67
2019-06-13 18:00:00 22.1 8 Sudoeste 18 Sudoeste 0 1010.5 -0.2 65
2019-06-13 17:00:00 23 8 Sudoeste 17 Sudoeste 0 1010.4 -0.6 63
2019-06-13 16:00:00 23.8 8 Sudoeste 16 Oeste 0 1010.5 -0.2 61
2019-06-13 15:00:00 24.1 6 Sudoeste 14 Sudoeste 0 1010.7 0 63
2019-06-13 14:00:00 23.3 8 Sudoeste 15 Sudoeste 0 1011 0.6 66
2019-06-13 13:00:00 23.3 6 Sudoeste 14 Sudoeste 0 1010.7 0.8 68
2019-06-13 12:00:00 22.4 6 Sur 13 Sur 0 1010.7 1.6 67
2019-06-13 11:00:00 21.6 5 Sur 12 Sur 0 1010.4 1.6 67
2019-06-13 10:00:00 21.3 6 Sur 11 Sudoeste 0 1009.9 1.1 70
2019-06-13 09:00:00 20.6 0 Calma 8 Sur 0 1009.1 0.7 73
2019-06-13 08:00:00 20.2 3 Sudoeste 8 Sudoeste 0 1008.8 0.5 72
2019-06-13 07:00:00 20.1 0 Calma 8 Nordeste 0 1008.8 0.4 70
2019-06-13 06:00:00 20.2 3 Norte 5 Nordeste 0 1008.4 -0.3 69
2019-06-13 05:00:00 20.3 0 Calma 5 Sudoeste 0 1008.3 -0.8 72
2019-06-13 04:00:00 20.5 2 Sur 7 Sudoeste 0 1008.4 -1 72
2019-06-13 03:00:00 20.4 0 Calma 6 Sudeste 0 1008.7 -0.8 74
2019-06-13 02:00:00 20.6 3 Sudeste 6 Sudoeste 0 1009.1 -0.2 74
2019-06-13 01:00:00 20.7 2 Sur 8 Sudoeste 0 1009.4 0.5 75
2019-06-13 00:00:00 20.9 4 Sur 9 Este 0 1009.5 1.1 75
2019-06-12 23:00:00 20.9 3 Este 15 Sur 0 1009.3 1.6 78
2019-06-12 22:00:00 21.8 5 Sur 15 Oeste 0 1008.9 1.3 77
2019-06-12 21:00:00 22.4 0 Calma 9 Sudoeste 0 1008.4 0.4 68
2019-06-12 20:00:00 23.2 4 Sudoeste 15 Sur 0 1007.7 -0.8 67
2019-06-12 19:00:00 23.4 7 Sur 15 Sur 0 1007.6 -1.2 65
2019-06-12 18:00:00 23.5 5 Sur 13 Sudoeste 0 1008 -1 67
2019-06-12 17:00:00 23.2 7 Sudoeste 14 Oeste 0 1008.5 -0.6 71
2019-06-12 16:00:00 23.3 8 Oeste 15 Oeste 0 1008.8 -0.6 68
2019-06-12 15:00:00 23.2 5 Noroeste 13 Noroeste 0 1009 0.1 67
2019-06-12 14:00:00 24.3 3 Oeste 15 Sudoeste 0 1009.1 -0.1 63
2019-06-12 13:00:00 24.2 4 Sur 19 Sudeste 0 1009.4 1.1 69
2019-06-12 12:00:00 23.2 8 Sur 18 Sur 0 1008.9 0.3 75
2019-06-12 11:00:00 21.7 5 Oeste 18 Noroeste 0 1009.2 1 82
2019-06-12 10:00:00 22 8 Noroeste 14 Norte 0 1008.3 0.4 78
2019-06-12 09:00:00 20.7 4 Sudeste 16 Sudeste 0 1008.6 0.8 85
2019-06-12 08:00:00 20 10 Sudeste 17 Sudeste 0 1008.2 0.3 88
2019-06-12 07:00:00 20 2 Sur 10 Noroeste 0 1007.9 -0.2 87
2019-06-12 06:00:00 20.1 3 Norte 9 Sudeste 0 1007.8 -0.2 82
2019-06-12 05:00:00 20.2 5 Sudeste 19 Sudeste 0 1007.9 -0.8 85
2019-06-12 04:00:00 20.3 9 Sudeste 22 Sudeste 0 1008.1 -1.7 86
2019-06-12 03:00:00 20.1 6 Sur 10 Sur 0 1008 -2 86
2019-06-12 02:00:00 19.9 5 Norte 11 Sudeste 0 1008.7 -1.5 85
2019-06-12 01:00:00 20.6 6 Sudeste 17 Sudeste 0 1009.8 0.2 82
2019-06-12 00:00:00 21 10 Sur 19 Sudeste 0 1010 0.7 82
2019-06-11 23:00:00 20.9 7 Noroeste 15 Norte 0 1010.2 0.8 82
2019-06-11 22:00:00 21.5 3 Oeste 17 Sur 0 1009.6 0.1 80
2019-06-11 21:00:00 22.3 8 Sur 18 Sur 0 1009.3 -0.3 74
2019-06-11 20:00:00 23.3 5 Oeste 13 Oeste 0 1009.4 -0.6 73
2019-06-11 19:00:00 23.9 8 Sur 22 Sudeste 0 1009.5 -0.6 72
2019-06-11 18:00:00 24.6 9 Sudoeste 22 Oeste 0 1009.6 -0.9 68
2019-06-11 17:00:00 26.4 8 Oeste 18 Oeste 0 1010 -1 62
2019-06-11 16:00:00 26.7 10 Sur 23 Sur 0 1010.1 -1.8 60
2019-06-11 15:00:00 26.9 10 Sur 19 Sur 0 1010.5 -1.3 56
2019-06-11 14:00:00 26.9 5 Sudoeste 17 Sudoeste 0 1011 -0.5 55
2019-06-11 13:00:00 26.2 8 Sur 16 Sur 0 1011.9 0.4 60
2019-06-11 12:00:00 26.1 6 Sur 14 Sudeste 0 1011.8 0.3 58
2019-06-11 11:00:00 24 4 Sur 15 Sur 0 1011.5 0.3 64
2019-06-11 10:00:00 22.5 10 Sur 22 Sur 0 1011.5 0.8 70
2019-06-11 09:00:00 19.5 6 Sudeste 12 Sur 0 1011.5 0.8 79
2019-06-11 08:00:00 18.9 5 Este 10 Sudeste 0 1011.2 0.1 81
2019-06-11 07:00:00 18.7 7 Sudeste 15 Sur 0 1010.7 -0.8 79
2019-06-11 06:00:00 19.3 8 Sur 16 Sur 0 1010.7 -1.4 79
2019-06-11 05:00:00 19 3 Sudeste 11 Sudeste 0 1011.1 -1.8 81
2019-06-11 04:00:00 19.8 8 Sur 15 Sur 0 1011.5 -1.6 78
2019-06-11 03:00:00 20.2 5 Sur 17 Sudoeste 0 1012.1 -1.5 79
2019-06-11 02:00:00 20.2 2 Sudoeste 9 Sudoeste 0 1012.9 -0.8 79
2019-06-11 01:00:00 20.1 3 Sur 14 Sudeste 0 1013.1 -0.2 79
2019-06-11 00:00:00 20.3 5 Sudeste 10 Sudeste 0 1013.6 1.1 77
2019-06-10 23:00:00 21 2 Sur 11 Noroeste 0 1013.7 1.4 74
2019-06-10 22:00:00 21.3 4 Noroeste 11 Sur 0 1013.3 0.7 70
2019-06-10 21:00:00 22.1 4 Sur 15 Sur 0 1012.5 0.1 69
2019-06-10 20:00:00 23.6 6 Sur 17 Sur 0 1012.3 -0.4 64
2019-06-10 19:00:00 23.9 7 Oeste 18 Oeste 0 1012.6 -0.7 63
2019-06-10 18:00:00 25.8 6 Oeste 17 Sur 0 1012.4 -1.6 56
2019-06-10 17:00:00 26.4 9 Sur 17 Sudoeste 0 1012.7 -1.3 56
2019-06-10 16:00:00 26.3 6 Oeste 23 Noroeste 0 1013.3 -1.2 58
2019-06-10 15:00:00 24.8 13 Noroeste 26 Noroeste 0 1014 -1.1 59
2019-06-10 14:00:00 25.2 4 Oeste 19 Sur 0 1014 -0.6 51
2019-06-10 13:00:00 26.1 9 Sur 19 Sudoeste 0 1014.5 -0.1 55
2019-06-10 12:00:00 24 10 Noroeste 30 Noroeste 0 1015.1 0.6 63
2019-06-10 11:00:00 22.1 19 Norte 30 Norte 0 1014.6 0.7 65
2019-06-10 10:00:00 22.3 5 Sur 17 Sur 0 1014.6 1 67
2019-06-10 09:00:00 19.5 8 Sudeste 21 Norte 0 1014.5 0.8 76
2019-06-10 08:00:00 18.6 14 Norte 27 Norte 0 1013.9 -0.5 77
2019-06-10 07:00:00 17.8 13 Nordeste 23 Nordeste 0 1013.6 -0.8 78
2019-06-10 06:00:00 18.5 9 Sudeste 15 Sudeste 0 1013.7 -1.1 78
2019-06-10 05:00:00 18.6 7 Norte 23 Norte 0 1014.4 -1.3 78
2019-06-10 04:00:00 18.4 14 Nordeste 19 Nordeste 0 1014.4 -1.6 77
2019-06-10 03:00:00 19.4 5 Sur 18 Sudoeste 0 1014.8 -0.8 75
2019-06-10 02:00:00 19.8 4 Sudoeste 13 Nordeste 0 1015.7 0.4 75
2019-06-10 01:00:00 19.4 8 Norte 13 Norte 0 1016 0.9 77
2019-06-10 00:00:00 19.7 0 Calma 17 Sudoeste 0 1015.6 1.1 76
2019-06-09 23:00:00 20.2 7 Sur 16 Sur 0 1015.3 0.8 74
2019-06-09 22:00:00 20.6 2 Sudoeste 12 Oeste 0 1015.1 0.6 72
2019-06-09 21:00:00 21.2 2 Sudoeste 13 Sur 0 1014.5 -0.2 67
2019-06-09 20:00:00 22.8 7 Sur 17 Sudoeste 0 1014.5 -0.5 64
2019-06-09 19:00:00 23.8 7 Sudoeste 17 Oeste 0 1014.5 -0.7 62
2019-06-09 18:00:00 24.2 9 Noroeste 17 Noroeste 0 1014.7 -0.9 58
2019-06-09 17:00:00 26.7 7 Sudoeste 17 Sudoeste 0 1015 -0.9 51
2019-06-09 16:00:00 26.2 8 Sur 20 Oeste 0 1015.2 -0.8 51
2019-06-09 15:00:00 26.5 8 Oeste 22 Oeste 0 1015.6 -0.6 52
2019-06-09 14:00:00 23.6 12 Noroeste 21 Noroeste 0 1015.9 -0.2 56
2019-06-09 13:00:00 25.3 9 Oeste 18 Sudeste 0 1016 0.3 53
2019-06-09 12:00:00 22.9 8 Sur 16 Sur 0 1016.2 1 62
2019-06-09 11:00:00 21.6 6 Oeste 27 Noroeste 0 1016.1 1.1 66
2019-06-09 10:00:00 21.6 17 Noroeste 29 Norte 0 1015.7 1.2 67
2019-06-09 09:00:00 19.7 8 Norte 15 Norte 0 1015.2 0.9 69
2019-06-09 08:00:00 19 8 Sudeste 14 Sudeste 0 1015 0.8 69
2019-06-09 07:00:00 18.4 7 Sudeste 21 Noroeste 0 1014.5 0 71
2019-06-09 06:00:00 18.8 11 Norte 26 Norte 0 1014.3 -0.4 67
2019-06-09 05:00:00 18.3 11 Nordeste 14 Este 0 1014.2 -0.9 71
2019-06-09 04:00:00 18.8 5 Sur 14 Norte 0 1014.5 -0.8 71
2019-06-09 03:00:00 19.2 9 Noroeste 25 Norte 0 1014.7 -0.6 63
2019-06-09 02:00:00 19.4 7 Norte 16 Norte 0 1015.1 -0.2 64
2019-06-09 01:00:00 19.5 5 Este 18 Sur 0 1015.3 0.5 67
2019-06-09 00:00:00 20 12 Sudeste 18 Sudeste 0 1015.3 1 64
2019-06-08 23:00:00 20.2 0 Calma 6 Noroeste 0 1015.3 1.1 69
2019-06-08 22:00:00 21.1 2 Sur 12 Sudoeste 0 1014.8 1.2 64
2019-06-08 21:00:00 22.5 5 Sudoeste 14 Oeste 0 1014.3 0.8 61
2019-06-08 20:00:00 23.1 6 Noroeste 17 Oeste 0 1014.2 0.4 59
2019-06-08 19:00:00 24.8 6 Oeste 13 Sudoeste 0 1013.6 -0.4 55
2019-06-08 18:00:00 26 8 Sur 17 Sur 0 1013.5 -0.8 53
2019-06-08 17:00:00 25.8 9 Sur 19 Sur 0 1013.8 -0.8 55
2019-06-08 16:00:00 26.2 7 Sur 15 Sudoeste 0 1014 -0.5 58
2019-06-08 15:00:00 26.3 8 Sudoeste 15 Oeste 0 1014.3 -0.2 61
2019-06-08 14:00:00 24.9 7 Sudoeste 12 Sudoeste 0 1014.6 0.3 68
2019-06-08 13:00:00 24.2 6 Oeste 17 Noroeste 0 1014.5 0.5 73
2019-06-08 12:00:00 23 6 Oeste 14 Oeste 0 1014.5 0.9 79
2019-06-08 11:00:00 21.9 2 Oeste 9 Sudeste 0 1014.3 1.2 82
2019-06-08 10:00:00 21.6 3 Sudoeste 9 Oeste 0 1014 1.2 85
2019-06-08 09:00:00 20.8 2 Noroeste 13 Norte 0 1013.6 1.2 83
2019-06-08 08:00:00 20 9 Norte 17 Noroeste 0 1013.1 0.8 82
2019-06-08 07:00:00 19.8 5 Nordeste 10 Nordeste 0 1012.8 0.4 80
2019-06-08 06:00:00 19.5 3 Nordeste 8 Nordeste 0 1012.4 -0.1 78
2019-06-08 05:00:00 19.6 5 Este 11 Este 0 1012.3 -0.7 75
2019-06-08 04:00:00 19.4 6 Este 10 Este 0 1012.4 -1.1 75
2019-06-08 03:00:00 19.3 6 Este 11 Este 0 1012.5 -1 73
2019-06-08 02:00:00 19.2 7 Este 11 Nordeste 0 1013 -0.1 74
2019-06-08 01:00:00 19.5 6 Este 10 Este 0 1013.5 0.9 74
2019-06-08 00:00:00 19.8 5 Este 12 Sudeste 0 1013.5 1.3 77
2019-06-07 23:00:00 20 7 Sudeste 11 Sudeste 0 1013.1 1 78
2019-06-07 22:00:00 20.3 5 Sudeste 8 Sudeste 0 1012.6 0.5 75
2019-06-07 21:00:00 20.6 4 Sur 6 Sur 0 1012.2 -0.2 71
2019-06-07 20:00:00 21.5 0 Calma 6 Sur 0 1012.1 -0.4 64
2019-06-07 19:00:00 23 2 Sudoeste 10 Sudoeste 0 1012.1 -0.4 62
2019-06-07 18:00:00 24.6 5 Sudoeste 11 Sudoeste 0 1012.4 -0.4 60
2019-06-07 17:00:00 24.7 6 Sudoeste 12 Sudoeste 0 1012.5 -0.4 59
2019-06-07 16:00:00 24.7 6 Sudoeste 12 Sudoeste 0 1012.5 -0.5 60
2019-06-07 15:00:00 24.6 5 Sudoeste 12 Sudoeste 0 1012.8 0.2 61
2019-06-07 14:00:00 25.6 5 Sudoeste 14 Oeste 0 1012.9 0.4 59
2019-06-07 13:00:00 23.8 5 Sur 12 Sudoeste 0 1013 0.8 62
2019-06-07 12:00:00 23.5 4 Sur 9 Sur 0 1012.6 0.9 66
2019-06-07 11:00:00 22 3 Sudoeste 8 Sur 0 1012.5 1.2 69
2019-06-07 10:00:00 21.2 0 Calma 4 Noroeste 0 1012.2 1.1 70
2019-06-07 09:00:00 19.3 4 Este 11 Este 0 1011.7 0.9 73
2019-06-07 08:00:00 17.7 8 Este 13 Este 0 1011.3 0.7 73
2019-06-07 07:00:00 17.6 8 Este 12 Este 0 1011.1 0.2 73
2019-06-07 06:00:00 17.9 6 Este 9 Este 0 1010.8 -0.6 72
2019-06-07 05:00:00 18.4 5 Este 9 Este 0 1010.6 -1.4 72
2019-06-07 04:00:00 18.9 4 Este 10 Este 0 1010.9 -1.4 71
2019-06-07 03:00:00 18.8 5 Este 11 Este 0 1011.4 -0.9 70
2019-06-07 02:00:00 18.6 6 Este 12 Este 0 1012 0.1 70
2019-06-07 01:00:00 19.1 6 Este 10 Nordeste 0 1012.3 0.8 70
2019-06-07 00:00:00 19.3 6 Este 10 Este 0 1012.3 1.2 71
2019-06-06 23:00:00 19.9 3 Este 7 Este 0 1011.9 0.9 71
2019-06-06 22:00:00 20.2 2 Sudeste 5 Sudoeste 0 1011.5 0.5 69
2019-06-06 21:00:00 21.3 0 Calma 8 Sudoeste 0 1011.1 -0.1 64
2019-06-06 20:00:00 22.4 4 Sudoeste 15 Sudoeste 0 1011 -0.1 61
2019-06-06 19:00:00 23.8 8 Sudoeste 16 Sudoeste 0 1011 0 58
2019-06-06 18:00:00 24.1 8 Sudoeste 15 Sudoeste 0 1011.2 -0.3 58
2019-06-06 17:00:00 24.1 9 Sudoeste 15 Sudoeste 0 1011.1 -0.4 57
2019-06-06 16:00:00 23.4 8 Sudoeste 14 Sudoeste 0 1011 -0.6 60
2019-06-06 15:00:00 23.6 6 Sudoeste 13 Sudoeste 0 1011.5 0.1 59
2019-06-06 14:00:00 23.5 7 Sudoeste 13 Sudoeste 0 1011.5 0.3 58
2019-06-06 13:00:00 23.6 6 Sudoeste 11 Sudoeste 0 1011.6 0.4 59
2019-06-06 12:00:00 23.4 6 Sudoeste 14 Sudoeste 0 1011.4 0.5 60
2019-06-06 11:00:00 24.1 8 Sur 19 Sur 0 1011.2 0.9 60
2019-06-06 10:00:00 21.2 3 Sur 15 Sur 0 1011.2 1 66
2019-06-06 09:00:00 20.5 3 Sudeste 19 Sudeste 0 1010.9 1 70
2019-06-06 08:00:00 20.2 4 Nordeste 18 Sur 0 1010.3 0 64
2019-06-06 07:00:00 20.1 4 Este 19 Este 0 1010.2 -0.2 63
2019-06-06 06:00:00 20.1 4 Sudoeste 10 Sudoeste 0 1009.9 -0.9 76
2019-06-06 05:00:00 20.1 4 Noroeste 10 Norte 0 1010.3 -1 73
2019-06-06 04:00:00 20.1 3 Nordeste 9 Nordeste 0 1010.4 -1.2 71
2019-06-06 03:00:00 19.8 3 Nordeste 12 Este 0 1010.8 -1.2 76
2019-06-06 02:00:00 19.3 6 Este 12 Este 0 1011.3 -0.1 78
2019-06-06 01:00:00 19.9 3 Sudoeste 12 Este 0 1011.6 0.4 79
2019-06-06 00:00:00 20.1 5 Este 15 Este 0 1012 1.2 77
2019-06-05 23:00:00 20.5 3 Oeste 21 Sudoeste 0 1011.4 0.7 75
2019-06-05 22:00:00 21.2 0 Calma 10 Sudoeste 0 1011.2 0.4 78
2019-06-05 21:00:00 21.9 5 Sudoeste 13 Oeste 0 1010.8 -0.3 77
2019-06-05 20:00:00 22.1 5 Noroeste 13 Oeste 0 1010.7 -0.6 76
2019-06-05 19:00:00 22.3 6 Noroeste 10 Norte 0 1010.8 -1 77
2019-06-05 18:00:00 22.9 5 Sur 12 Sur 0 1011.1 -0.8 75
2019-06-05 17:00:00 22.9 4 Sudoeste 13 Noroeste 0 1011.3 -0.9 74
2019-06-05 16:00:00 23.3 8 Oeste 18 Noroeste 0 1011.8 -0.5 74
2019-06-05 15:00:00 22.7 12 Noroeste 23 Noroeste 0 1011.9 -0.2 76
2019-06-05 14:00:00 23.1 7 Norte 14 Noroeste 0 1012.2 -0.1 73
2019-06-05 13:00:00 26.2 7 Sur 17 Sur 0 1012.3 0 63
2019-06-05 12:00:00 24.9 9 Sur 16 Sur 0 1012.1 0.3 69
2019-06-05 11:00:00 22.8 6 Sudoeste 14 Sudoeste 0 1012.3 0.8 76
2019-06-05 10:00:00 21.5 3 Oeste 9 Oeste 0 1012.3 1 82
2019-06-05 09:00:00 20.9 0 Calma 12 Sur 0 1011.8 0.6 84
2019-06-05 08:00:00 20.6 5 Sur 14 Sur 0 1011.5 0.3 83
2019-06-05 07:00:00 20.5 5 Sudeste 14 Norte 0 1011.3 -0.3 83
2019-06-05 06:00:00 20.1 7 Nordeste 12 Nordeste 0 1011.2 -0.5 84
2019-06-05 05:00:00 20.6 0 Calma 11 Sudeste 0 1011.2 -0.9 85
2019-06-05 04:00:00 20.3 6 Sudeste 11 Sudeste 0 1011.6 -1 85
2019-06-05 03:00:00 20.5 0 Calma 11 Nordeste 0 1011.7 -0.9 85
2019-06-05 02:00:00 20.1 6 Norte 12 Nordeste 0 1012.1 -0.3 86
2019-06-05 01:00:00 20.5 3 Sudeste 9 Sudeste 0 1012.6 0.7 84
2019-06-05 00:00:00 20.8 2 Este 11 Norte 0 1012.6 1.3 81
2019-06-04 23:00:00 21 7 Norte 13 Nordeste 0 1012.4 1.3 79
2019-06-04 22:00:00 21.3 0 Calma 14 Sur 0 1011.9 0.8 79
2019-06-04 21:00:00 22.4 6 Sur 13 Sur 0 1011.3 -0.1 75
2019-06-04 20:00:00 23.4 5 Oeste 13 Sudoeste 0 1011.1 -0.5 70
2019-06-04 19:00:00 24.7 4 Oeste 18 Sur 0 1011.1 -1 66
2019-06-04 18:00:00 25.9 12 Sur 22 Sur 0 1011.4 -0.8 66
2019-06-04 17:00:00 27.4 9 Sudoeste 16 Sur 0 1011.6 -0.7 62
2019-06-04 16:00:00 27.9 6 Sudoeste 13 Sudoeste 0 1012.1 -0.3 58
2019-06-04 15:00:00 27.9 6 Sudoeste 17 Sudoeste 0 1012.2 0.1 59
2019-06-04 14:00:00 28 6 Sur 14 Sudoeste 0 1012.3 0.6 59
2019-06-04 13:00:00 27.7 5 Sudoeste 10 Sudoeste 0 1012.4 1 62
2019-06-04 12:00:00 26.5 5 Sudoeste 9 Sudoeste 0 1012.1 1.1 62
2019-06-04 11:00:00 25.6 4 Sudoeste 8 Sur 0 1011.7 1.2 66
2019-06-04 10:00:00 24 3 Sudoeste 6 Sudoeste 0 1011.4 1.5 67
2019-06-04 09:00:00 21 0 Calma 5 Nordeste 0 1011 1.4 75
2019-06-04 08:00:00 20.2 4 Nordeste 8 Este 0 1010.5 1 73
2019-06-04 07:00:00 19.9 4 Este 7 Este 0 1009.9 0.4 75
2019-06-04 06:00:00 20.1 3 Nordeste 7 Este 0 1009.6 -0.5 74
2019-06-04 05:00:00 20.1 3 Nordeste 7 Este 0 1009.5 -1.1 76
2019-06-04 04:00:00 20.5 4 Nordeste 7 Nordeste 0 1009.5 -1.5 79
2019-06-04 03:00:00 20.6 5 Nordeste 8 Nordeste 0 1010.1 -1.1 79
2019-06-04 02:00:00 20.4 2 Norte 7 Norte 0 1010.6 -0.2 82
2019-06-04 01:00:00 20.4 0 Calma 3 Nordeste 0 1011 1 86
2019-06-04 00:00:00 20.9 0 Calma 4 Sudeste 0 1011.2 1.7 84
2019-06-03 23:00:00 21.6 0 Calma 2 Sur 0 1010.8 1.6 84
2019-06-03 22:00:00 21.7 0 Calma 7 Sur 0 1010 1 85
2019-06-03 21:00:00 23.2 4 Sur 12 Sur 0 1009.5 0.4 77
2019-06-03 20:00:00 24.5 7 Sur 12 Sur 0 1009.2 0.2 71
2019-06-03 19:00:00 25.9 6 Sur 11 Sur 0 1009 -0.3 63
2019-06-03 18:00:00 27.8 6 Sudoeste 12 Sudoeste 0 1009.1 -0.3 58
2019-06-03 17:00:00 29.3 5 Sudoeste 12 Sur 0 1009 -0.4 54
2019-06-03 16:00:00 29.2 6 Sudoeste 11 Sudoeste 0 1009.3 -0.3 53
2019-06-03 15:00:00 28.8 5 Sudoeste 13 Sudoeste 0 1009.4 -0.1 60
2019-06-03 14:00:00 29.1 5 Sudoeste 12 Noroeste 0 1009.4 0.2 52
2019-06-03 13:00:00 27.3 5 Noroeste 13 Noroeste 0 1009.6 0.6 55
2019-06-03 12:00:00 27.4 4 Noroeste 9 Noroeste 0 1009.5 0.8 47
2019-06-03 11:00:00 27 3 Oeste 8 Sudoeste 0 1009.2 1.1 51
2019-06-03 10:00:00 25.1 4 Sur 6 Sur 0 1009 1 61
2019-06-03 09:00:00 21.9 4 Este 9 Este 0 1008.7 0.8 70
2019-06-03 08:00:00 20.8 5 Nordeste 12 Este 0 1008.1 0.3 74
2019-06-03 07:00:00 20.3 6 Este 9 Este 0 1008 0.1 78
2019-06-03 06:00:00 19.9 5 Este 10 Este 0 1007.9 -0.5 81
2019-06-03 05:00:00 19.1 3 Sudeste 11 Este 0 1007.8 -1.1 89
2019-06-03 04:00:00 19.3 2 Sudeste 13 Sudeste 0 1007.9 -1.2 92
2019-06-03 03:00:00 19.7 3 Sudeste 8 Sur 0 1008.4 -0.7 93
2019-06-03 02:00:00 20 3 Sudeste 8 Sudeste 0 1008.9 0.4 92
2019-06-03 01:00:00 20.6 3 Sur 7 Sur 0 1009.1 1.1 90
2019-06-03 00:00:00 21.2 3 Sudoeste 7 Oeste 0 1009.1 1.8 89
2019-06-02 23:00:00 21.3 2 Noroeste 6 Noroeste 0 1008.5 1.5 88
2019-06-02 22:00:00 21.8 0 Calma 6 Noroeste 0 1008 1 85
2019-06-02 21:00:00 22.2 2 Sudoeste 8 Sudoeste 0 1007.3 0.2 82
2019-06-02 20:00:00 23.3 5 Sudoeste 12 Sudoeste 0 1007 0 77
2019-06-02 19:00:00 24.3 4 Sudoeste 12 Sudoeste 0 1007 -0.4 72
2019-06-02 18:00:00 25.7 4 Oeste -- -- -- 1007.1 -0.4 66
2019-06-02 17:00:00 26.7 6 Sudoeste 13 Sudoeste 0 1007 -0.9 64
2019-06-02 16:00:00 26.7 8 Sudoeste 16 Sudoeste 0 1007.4 -0.8 64
2019-06-02 15:00:00 26 7 Sudoeste 13 Sudoeste 0 1007.5 -0.8 66
2019-06-02 14:00:00 23.6 6 Noroeste 15 Noroeste 0 1007.9 0 72
2019-06-02 13:00:00 23.8 8 Noroeste 17 Noroeste 0 1008.2 0.9 73
2019-06-02 12:00:00 23.1 8 Noroeste 16 Oeste 0 1008.3 1.6 75
2019-06-02 11:00:00 23.9 4 Oeste 12 Oeste 0 1007.9 1.3 71
2019-06-02 10:00:00 23.1 3 Sudoeste 8 Oeste 0 1007.3 0.9 75
2019-06-02 09:00:00 21 3 Sudoeste 7 Sur 0 1006.7 0.4 83
2019-06-02 08:00:00 20.1 3 Sur 7 Sudeste 0 1006.6 0.1 86
2019-06-02 07:00:00 20.2 2 Sudoeste 4 Sudoeste 0 1006.4 -0.4 86
2019-06-02 06:00:00 20.1 0 Calma 6 Norte 0 1006.3 -0.8 87
2019-06-02 05:00:00 20 4 Noroeste 9 Norte 0 1006.5 -0.8 88
2019-06-02 04:00:00 20.2 4 Noroeste 13 Norte 0 1006.8 -0.5 88
2019-06-02 03:00:00 20.2 7 Noroeste 16 Noroeste 0 1007.1 -0.1 87
2019-06-02 02:00:00 20.3 5 Noroeste 11 Noroeste 0 1007.3 0.6 86
2019-06-02 01:00:00 20.4 3 Noroeste 6 Sudoeste 0 1007.3 1 83
2019-06-02 00:00:00 20.8 4 Sudoeste 11 Sur 0 1007.2 1.2 82
2019-06-01 23:00:00 21.1 4 Sur 10 Sur 0 1006.7 0.9 81
2019-06-01 22:00:00 21.5 4 Sur 13 Sur 0 1006.3 0.8 79
2019-06-01 21:00:00 21.9 6 Sur 13 Sudoeste 0 1006 0.3 77
2019-06-01 20:00:00 22.7 6 Sudoeste 14 Sur 0 1005.8 -0.3 74
2019-06-01 19:00:00 23.5 4 Sudoeste 12 Sudoeste 0 1005.5 -1.1 70
2019-06-01 18:00:00 25.1 8 Sudoeste 15 Sudoeste 0 1005.7 -1.2 65
2019-06-01 17:00:00 25.5 9 Sudoeste 15 Sur 0 1006.1 -1.5 64
2019-06-01 16:00:00 25 8 Sur 14 Sur 0 1006.6 -1.8 66
2019-06-01 15:00:00 23.9 6 Sur 12 Sudoeste 0 1006.9 -1.1 71
2019-06-01 14:00:00 22.6 8 Sudoeste 17 Sudoeste 0 1007.6 0.1 76
2019-06-01 13:00:00 22.5 6 Oeste 14 Sudoeste 0 1008.4 1.4 77
2019-06-01 12:00:00 22.2 4 Oeste 11 Noroeste 0 1008 1.8 76
2019-06-01 11:00:00 22 3 Oeste 11 Sur 0 1007.5 1.5 75
2019-06-01 10:00:00 21.8 6 Sur 14 Sur 0 1007 1.1 76
2019-06-01 09:00:00 20.7 6 Sur 10 Sudeste 0 1006.2 0.1 80
2019-06-01 08:00:00 19.9 3 Sudoeste 9 Sur 0 1006 -0.4 83
2019-06-01 07:00:00 19.7 2 Sur 8 Este 0 1005.9 -0.8 82
2019-06-01 06:00:00 20.1 3 Sur 10 Sudoeste 0 1006.1 -0.5 82
2019-06-01 05:00:00 20.3 4 Sur 9 Sudoeste 0 1006.4 -0.6 82
2019-06-01 04:00:00 20.3 4 Sur 10 Sur 0 1006.7 -0.7 82
2019-06-01 03:00:00 20.6 4 Sudoeste 10 Sudoeste 0 1006.6 -0.8 81
2019-06-01 02:00:00 20.5 3 Sur 11 Sur 0 1007 -0.5 82
2019-06-01 01:00:00 20.7 4 Sur 10 Sudoeste 0 1007.4 0.5 82
2019-06-01 00:00:00 20.7 3 Sur 6 Sur 0 1007.4 0.8 84
2019-05-31 23:00:00 20.4 0 Calma 3 Sur 0 1007.5 1.1 83
2019-05-31 22:00:00 20.4 2 Sur 10 Sur 0 1006.9 0.4 81
2019-05-31 21:00:00 21.3 4 Sur 12 Sur 0 1006.6 -0.4 75
2019-05-31 20:00:00 22.7 7 Sur 14 Sur 0 1006.4 -1 70
2019-05-31 19:00:00 24.6 9 Sudoeste 15 Sudoeste 0 1006.5 -1.2 64
2019-05-31 18:00:00 25.7 7 Sudoeste 17 Sudoeste 0 1007 -0.7 61
2019-05-31 17:00:00 26.5 9 Sudoeste 20 Sur 0 1007.4 -0.8 58
2019-05-31 16:00:00 26 11 Sur 18 Sur 0 1007.7 -0.7 58
2019-05-31 15:00:00 26.2 7 Sur 17 Sur 0 1007.7 -0.7 58
2019-05-31 14:00:00 25.1 8 Sur 15 Sur 0 1008.2 -0.3 61
2019-05-31 13:00:00 25.4 6 Sur 15 Sur 0 1008.4 0 59
2019-05-31 12:00:00 24.8 5 Sur 13 Sur 0 1008.4 0.2 61
2019-05-31 11:00:00 23.9 5 Sudoeste 12 Sudoeste 0 1008.5 0.7 63
2019-05-31 10:00:00 22.6 5 Sudoeste 12 Sudoeste 0 1008.4 0.8 67
2019-05-31 09:00:00 19.8 3 Sudeste 8 Nordeste 0 1008.2 0.8 76
2019-05-31 08:00:00 18.8 4 Este 10 Sudeste 0 1007.8 0.5 77
2019-05-31 07:00:00 18.7 5 Sudeste 15 Sudeste 0 1007.6 0 77
2019-05-31 06:00:00 18.8 5 Este 10 Sudeste 0 1007.4 -0.8 77
2019-05-31 05:00:00 19.1 5 Este 10 Sudeste 0 1007.3 -1.6 76
2019-05-31 04:00:00 19.5 6 Sudeste 9 Este 0 1007.6 -1.7 76
2019-05-31 03:00:00 19.9 2 Oeste 7 Sudoeste 0 1008.2 -1.3 79
2019-05-31 02:00:00 20.1 0 Calma 5 Sudoeste 0 1008.9 -0.5 78
2019-05-31 01:00:00 20.1 5 Sudeste 12 Sudeste 0 1009.3 0.1 77
2019-05-31 00:00:00 20.2 4 Sudeste 13 Sur 0 1009.5 0.6 77
2019-05-30 23:00:00 20.7 5 Sur 11 Sudeste 0 1009.4 0.8 75
2019-05-30 22:00:00 21 6 Sur 11 Sur 0 1009.2 0.6 74
2019-05-30 21:00:00 20.9 4 Sur 12 Sudoeste 0 1008.9 0.2 73
2019-05-30 20:00:00 22.2 6 Sur 18 Sur 0 1008.6 -0.2 69
2019-05-30 19:00:00 23.2 10 Sur 18 Sur 0 1008.6 -0.6 64
2019-05-30 18:00:00 25 8 Sur 16 Sudoeste 0 1008.7 -0.7 59
2019-05-30 17:00:00 25.6 6 Sur 14 Sudeste 0 1008.8 -0.8 56
2019-05-30 16:00:00 25.7 6 Sudoeste 15 Sur 0 1009.2 -0.7 58
2019-05-30 15:00:00 25.7 6 Sudoeste 14 Sudoeste 0 1009.4 -0.7 57
2019-05-30 14:00:00 25.6 6 Sudoeste 15 Sudoeste 0 1009.6 -0.1 58
2019-05-30 13:00:00 25.3 8 Sudoeste 15 Sudoeste 0 1009.9 0.2 59
2019-05-30 12:00:00 24.6 6 Sudoeste 12 Sudoeste 0 1010.1 0.6 61
2019-05-30 11:00:00 23.4 5 Sur 10 Sur 0 1009.7 0.5 65
2019-05-30 10:00:00 21.4 4 Sur 11 Sur 0 1009.7 1 72
2019-05-30 09:00:00 19.6 3 Sudoeste 10 Sudoeste 0 1009.5 1 77
2019-05-30 08:00:00 19.2 3 Sur 10 Sudoeste 0 1009.2 1 78
2019-05-30 07:00:00 19 3 Nordeste 8 Nordeste 0 1008.7 0.2 77
2019-05-30 06:00:00 19 0 Calma 7 Sur 0 1008.5 -0.6 79
2019-05-30 05:00:00 19.2 2 Este 10 Sur 0 1008.2 -1.5 78
2019-05-30 04:00:00 19.5 3 Oeste 10 Noroeste 0 1008.5 -1.7 79
2019-05-30 03:00:00 19.5 5 Noroeste 12 Oeste 0 1009.1 -1.5 79
2019-05-30 02:00:00 19.8 4 Oeste 9 Oeste 0 1009.7 -0.5 78
2019-05-30 01:00:00 20 4 Sur 12 Sudeste 0 1010.2 0.5 78
2019-05-30 00:00:00 20 6 Sur 12 Sur 0 1010.6 1.2 77
2019-05-29 23:00:00 19.9 5 Sur 10 Sur 0 1010.2 1 78
2019-05-29 22:00:00 20.1 0 Calma 8 Oeste 0 1009.7 0.8 76
2019-05-29 21:00:00 20.8 4 Noroeste 10 Oeste 0 1009.4 0.3 72
2019-05-29 20:00:00 21.8 6 Sudoeste 17 Sudoeste 0 1009.2 0 69
2019-05-29 19:00:00 22.6 8 Sur 19 Sur 0 1008.9 -0.5 66
2019-05-29 18:00:00 24.4 9 Sur 18 Sur 0 1009.1 -0.6 60
2019-05-29 17:00:00 25.4 8 Sur 17 Sur 0 1009.2 -1.2 58
2019-05-29 16:00:00 25.5 6 Sudoeste 15 Oeste 0 1009.4 -1.3 59
2019-05-29 15:00:00 23.6 7 Oeste 18 Noroeste 0 1009.7 -0.9 65
2019-05-29 14:00:00 22.3 8 Noroeste 19 Oeste 0 1010.4 0 70
2019-05-29 13:00:00 22 9 Noroeste 23 Noroeste 0 1010.7 0.4 74
2019-05-29 12:00:00 21.5 13 Noroeste 25 Noroeste 0 1010.6 0.6 75
2019-05-29 11:00:00 21.5 13 Noroeste 22 Noroeste 0 1010.4 1 74
2019-05-29 10:00:00 20.8 5 Oeste 13 Sudoeste 0 1010.3 1.1 76
2019-05-29 09:00:00 19.9 9 Sur 15 Sur 0 1010 0.9 80
2019-05-29 08:00:00 19.5 4 Sur 12 Sudeste 0 1009.4 0.5 81
2019-05-29 07:00:00 19.3 5 Oeste 15 Noroeste 0 1009.2 0.1 82
2019-05-29 06:00:00 19.3 7 Noroeste 14 Noroeste 0 1009.1 -0.2 82
2019-05-29 05:00:00 19.5 4 Noroeste 8 Noroeste 0 1008.9 -1.2 82
2019-05-29 04:00:00 19.9 3 Sudoeste 8 Sur 0 1009.1 -1.2 83
2019-05-29 03:00:00 19.9 4 Sur 14 Oeste 0 1009.3 -0.9 86
2019-05-29 02:00:00 19.8 4 Oeste 16 Norte 0 1010.1 0.1 86
2019-05-29 01:00:00 19.8 9 Norte 18 Norte 0 1010.3 0.9 83
2019-05-29 00:00:00 19.3 11 Norte 18 Norte 0 1010.2 1.2 83
2019-05-28 23:00:00 19.6 5 Norte 10 Sudeste 0 1010 1.2 82
2019-05-28 22:00:00 20.2 7 Sudeste 15 Sur 0 1009.4 0.7 80
2019-05-28 21:00:00 20.8 7 Sudeste 13 Sur 0 1009 0.6 76
2019-05-28 20:00:00 21.9 4 Sudoeste 20 Norte 0 1008.8 0.3 72
2019-05-28 19:00:00 22.3 13 Noroeste 25 Noroeste 0 1008.7 -0.2 73
2019-05-28 18:00:00 23.5 16 Noroeste 24 Noroeste 0 1008.4 -0.4 64
2019-05-28 17:00:00 25 8 Noroeste 24 Sudeste 0 1008.5 -0.9 59
2019-05-28 16:00:00 25.5 14 Sur 24 Sur 0 1008.9 -0.3 62
2019-05-28 15:00:00 25.6 10 Sur 19 Sur 0 1008.8 -0.1 62
2019-05-28 14:00:00 23.2 10 Noroeste 28 Noroeste 0 1009.4 0.3 70
2019-05-28 13:00:00 23.2 16 Noroeste 26 Noroeste 0 1009.2 0.1 72
2019-05-28 12:00:00 22.9 12 Noroeste 19 Norte 0 1008.9 0.2 70
2019-05-28 11:00:00 23.1 5 Sur 14 Sur 0 1009.1 1.4 73
2019-05-28 10:00:00 21.9 8 Sur 14 Sudeste 0 1009.1 1.8 79
2019-05-28 09:00:00 19.5 0 Calma 11 Nordeste 0 1008.7 1.5 88
2019-05-28 08:00:00 18.4 6 Nordeste 14 Nordeste 0 1007.7 0 89
2019-05-28 07:00:00 18.2 6 Nordeste 9 Nordeste 0 1007.3 -0.1 90
2019-05-28 06:00:00 18.5 6 Sudeste 12 Sudeste 0 1007.2 -0.2 92
2019-05-28 05:00:00 19.1 0 Calma 11 Nordeste 0 1007.7 -0.2 91
2019-05-28 04:00:00 19.1 8 Norte 15 Nordeste 0 1007.4 -1 89
2019-05-28 03:00:00 19.1 8 Norte 14 Norte 0 1007.4 -1.1 82
2019-05-28 02:00:00 19.1 2 Sudeste 15 Sudeste 0 1007.9 -0.5 86
2019-05-28 01:00:00 19.7 9 Sudeste 15 Sudeste 0 1008.4 0.6 88
2019-05-28 00:00:00 19.9 4 Este 6 Este 0 1008.5 1 86
2019-05-27 23:00:00 20.3 0 Calma 4 Noroeste 0 1008.4 1.1 85
2019-05-27 22:00:00 20.3 0 Calma 9 Sur 0 1007.8 0.4 84
2019-05-27 21:00:00 20.9 4 Sur 14 Sur 0 1007.5 0.1 80
2019-05-27 20:00:00 22.1 8 Sur 16 Sur 0 1007.3 -0.4 76
2019-05-27 19:00:00 23.4 7 Sudoeste 13 Sudoeste 0 1007.4 -0.4 71
2019-05-27 18:00:00 23.5 7 Noroeste 19 Noroeste 0 1007.4 -0.8 70
2019-05-27 17:00:00 24.1 10 Noroeste 18 Oeste 0 1007.7 -0.5 66
2019-05-27 16:00:00 26.3 6 Oeste 16 Sur 0 1007.8 -0.8 60
2019-05-27 15:00:00 25.5 11 Sur 22 Sur 0 1008.2 -0.9 62
2019-05-27 14:00:00 26.2 10 Sur 20 Sur 0 1008.2 -0.4 62
2019-05-27 13:00:00 25.6 10 Sur 18 Sur 0 1008.6 0.3 63
2019-05-27 12:00:00 25.1 6 Sudoeste 12 Sudoeste 0 1009.1 1.1 65
2019-05-27 11:00:00 23.3 2 Oeste 11 Oeste 0 1008.6 1.5 70
2019-05-27 10:00:00 21.7 3 Norte 9 Sudeste 0 1008.3 1.2 75
2019-05-27 09:00:00 18.9 5 Sudeste 13 Sudeste 0 1008 0.9 88
2019-05-27 08:00:00 18.3 9 Sudeste 14 Sudeste 0 1007.1 0 89
2019-05-27 07:00:00 18.3 7 Sudeste 11 Sudeste 0 1007.1 -0.3 86
2019-05-27 06:00:00 18.5 6 Este 17 Norte 0 1007.1 -0.8 84
2019-05-27 05:00:00 18.6 8 Norte 13 Norte 0 1007.1 -1.2 84
2019-05-27 04:00:00 18.7 5 Este 18 Sudeste 0 1007.4 -1.5 86
2019-05-27 03:00:00 18.7 9 Sudeste 17 Sudeste 0 1007.9 -1 86
2019-05-27 02:00:00 19.3 8 Sur 14 Sur 0 1008.3 -0.1 83
2019-05-27 01:00:00 19.2 0 Calma 14 Noroeste 0 1008.9 0.6 85
2019-05-27 00:00:00 19.4 8 Norte 14 Norte 0 1008.9 1 83
2019-05-26 23:00:00 19.6 5 Norte 9 Norte 0 1008.4 0.5 81
2019-05-26 22:00:00 19.9 4 Sudeste 14 Sur 0 1008.3 0.3 77
2019-05-26 21:00:00 20.8 5 Sur 12 Sudoeste 0 1007.9 -0.1 75
2019-05-26 20:00:00 22 6 Oeste 18 Oeste 0 1007.9 -0.2 74
2019-05-26 19:00:00 22.2 11 Noroeste 18 Noroeste 0 1008 -0.5 71
2019-05-26 18:00:00 25.3 6 Oeste 15 Sudeste 0 1008 -1.2 58
2019-05-26 17:00:00 25.8 9 Sur 19 Sur 0 1008.1 -1.3 59
2019-05-26 16:00:00 26.5 9 Sur 15 Sur 0 1008.5 -1 57
2019-05-26 15:00:00 26.1 5 Sudoeste 15 Oeste 0 1009.2 -0.4 59
2019-05-26 14:00:00 24 8 Noroeste 15 Noroeste 0 1009.4 -0.2 62
2019-05-26 13:00:00 25.1 4 Sudoeste 14 Sur 0 1009.5 0.2 59
2019-05-26 12:00:00 25.1 8 Sur 19 Sur 0 1009.6 0.5 62
2019-05-26 11:00:00 23.6 8 Sur 17 Sur 0 1009.6 1 66
2019-05-26 10:00:00 20.4 0 Calma 9 Norte 0 1009.3 1.2 75
2019-05-26 09:00:00 19 6 Norte 19 Norte 0 1009.1 1.1 80
2019-05-26 08:00:00 18.7 3 Este 21 Sudeste 0 1008.6 0.5 80
2019-05-26 07:00:00 18.4 14 Sudeste 25 Sudeste 0 1008.1 0.8 80
2019-05-26 06:00:00 18.4 10 Sudeste 31 Norte 0 1008 -0.6 79
2019-05-26 05:00:00 18.8 19 Norte 41 Noroeste 0 1008.1 -0.6 78
2019-05-26 04:00:00 18.6 26 Norte 39 Norte 0 1007.3 -2 79
2019-05-26 03:00:00 19 8 Sudeste 19 Sudeste 0 1008.6 -1 79
2019-05-26 02:00:00 19.3 5 Sudeste 18 Norte 0 1008.7 -0.8 79
2019-05-26 01:00:00 18.8 11 Norte 19 Norte 0 1009.3 -0.3 81
2019-05-26 00:00:00 19.3 9 Sudeste 21 Sudeste 0 1009.6 0.5 80